Time;durP1;ratioP1;P1;durP2;ratioP2;P2;SDS_P1;SDS_P2;PMS_P1;PMS_P2;Temp;Humidity;BMP_temperature;BMP_pressure;BME280_temperature;BME280_humidity;BME280_pressure;Samples;Min_cycle;Max_cycle;Signal;HPM_P1;HPM_P2
2022/06/09 00:01:13;;;;;;;8.40;2.93;;;;;;;;;;5250989;28;20090;-77
2022/06/09 00:03:47;;;;;;;16.03;4.53;;;;;;;;;;5244037;28;20108;-77
2022/06/09 00:06:18;;;;;;;16.27;4.82;;;;;;;;;;5233701;28;20025;-77
2022/06/09 00:08:50;;;;;;;9.70;3.27;;;;;;;;;;5243514;28;20365;-77
2022/06/09 00:11:24;;;;;;;17.10;3.80;;;;;;;;;;5257704;28;20070;-76
2022/06/09 00:13:55;;;;;;;11.82;4.40;;;;;;;;;;5247816;28;20025;-77
2022/06/09 00:16:26;;;;;;;19.67;4.77;;;;;;;;;;5249902;28;20037;-77
2022/06/09 00:18:57;;;;;;;18.90;5.23;;;;;;;;;;5257184;28;20017;-77
2022/06/09 00:21:28;;;;;;;16.73;4.70;;;;;;;;;;5239223;28;20029;-77
2022/06/09 00:24:00;;;;;;;19.37;3.77;;;;;;;;;;5237365;28;20030;-77
2022/06/09 00:26:31;;;;;;;16.93;4.47;;;;;;;;;;5252469;28;20108;-76
2022/06/09 00:29:04;;;;;;;14.77;4.13;;;;;;;;;;5255795;28;20052;-76
2022/06/09 00:31:35;;;;;;;20.57;4.53;;;;;;;;;;5247396;28;20040;-76
2022/06/09 00:34:06;;;;;;;17.60;5.10;;;;;;;;;;5237542;28;20026;-77
2022/06/09 00:36:38;;;;;;;18.87;4.77;;;;;;;;;;5235867;28;20524;-77
2022/06/09 00:39:09;;;;;;;17.13;4.80;;;;;;;;;;5241353;28;20606;-77
2022/06/09 00:41:42;;;;;;;15.73;4.53;;;;;;;;;;5251341;28;20028;-78
2022/06/09 00:44:15;;;;;;;15.33;5.03;;;;;;;;;;5236481;28;20614;-78
2022/06/09 00:46:48;;;;;;;21.97;5.43;;;;;;;;;;5251497;28;20465;-78
2022/06/09 00:49:29;;;;;;;17.48;4.70;;;;;;;;;;5261717;28;20029;-78
2022/06/09 00:52:01;;;;;;;18.53;4.47;;;;;;;;;;5254213;28;20111;-78
2022/06/09 00:54:38;;;;;;;19.43;4.23;;;;;;;;;;5245751;28;20025;-78
2022/06/09 00:57:11;;;;;;;22.47;4.60;;;;;;;;;;5253263;28;20385;-77
2022/06/09 00:59:44;;;;;;;19.85;6.60;;;;;;;;;;5253542;28;20025;-77
2022/06/09 01:02:17;;;;;;;13.47;4.60;;;;;;;;;;5238375;28;20017;-77
2022/06/09 01:04:49;;;;;;;18.70;4.47;;;;;;;;;;5255827;28;20021;-78
2022/06/09 01:07:26;;;;;;;21.13;5.50;;;;;;;;;;5248541;28;20350;-78
2022/06/09 01:09:57;;;;;;;14.60;4.47;;;;;;;;;;5239922;28;20028;-77
2022/06/09 01:12:30;;;;;;;22.47;5.37;;;;;;;;;;5236078;28;20493;-77
2022/06/09 01:15:05;;;;;;;21.00;6.63;;;;;;;;;;5254862;28;20021;-77
2022/06/09 01:17:36;;;;;;;;;;;;;;;;;;5235757;28;20033;-78
2022/06/09 01:20:07;;;;;;;21.63;5.35;;;;;;;;;;5241046;28;19974;-78
2022/06/09 01:22:43;;;;;;;18.80;5.00;;;;;;;;;;5255034;28;20079;-77
2022/06/09 01:25:23;;;;;;;21.40;4.53;;;;;;;;;;5243950;28;20449;-77
2022/06/09 01:28:15;;;;;;;22.13;6.20;;;;;;;;;;5256253;28;20017;-77
2022/06/09 01:30:52;;;;;;;19.17;6.10;;;;;;;;;;5254384;28;20021;-77
2022/06/09 01:33:23;;;;;;;25.17;6.70;;;;;;;;;;5256128;28;20504;-77
2022/06/09 01:36:04;;;;;;;20.20;5.40;;;;;;;;;;5236288;28;20017;-77
2022/06/09 01:38:45;;;;;;;21.83;6.10;;;;;;;;;;5234685;28;20071;-77
2022/06/09 01:41:57;;;;;;;26.40;7.30;;;;;;;;;;5240025;28;20071;-77
2022/06/09 01:44:28;;;;;;;18.93;5.80;;;;;;;;;;5238212;28;20108;-77
2022/06/09 01:47:00;;;;;;;30.53;6.87;;;;;;;;;;5248110;28;20116;-77
2022/06/09 01:49:32;;;;;;;19.53;5.33;;;;;;;;;;5243974;28;20018;-77
2022/06/09 01:52:04;;;;;;;20.17;5.00;;;;;;;;;;5236642;28;20132;-77
2022/06/09 01:54:36;;;;;;;28.87;6.93;;;;;;;;;;5250791;28;20107;-77
2022/06/09 01:57:14;;;;;;;20.50;6.30;;;;;;;;;;5255852;28;20425;-77
2022/06/09 01:59:50;;;;;;;24.10;7.47;;;;;;;;;;5255304;28;20020;-77
2022/06/09 02:02:26;;;;;;;23.13;7.17;;;;;;;;;;5246584;28;20144;-77
2022/06/09 02:05:03;;;;;;;30.80;7.33;;;;;;;;;;5246665;28;20056;-77
2022/06/09 02:07:36;;;;;;;29.13;8.17;;;;;;;;;;5241285;28;20461;-77
2022/06/09 02:10:15;;;;;;;25.60;6.57;;;;;;;;;;5251944;28;20096;-77
2022/06/09 02:12:48;;;;;;;21.87;6.70;;;;;;;;;;5234900;28;20017;-77
2022/06/09 02:15:25;;;;;;;19.33;6.43;;;;;;;;;;5234688;28;20492;-77
2022/06/09 02:17:57;;;;;;;29.63;7.60;;;;;;;;;;5238244;28;20025;-77
2022/06/09 02:20:28;;;;;;;24.03;6.47;;;;;;;;;;5243546;28;20147;-77
2022/06/09 02:22:59;;;;;;;24.47;7.17;;;;;;;;;;5233416;28;20116;-77
2022/06/09 02:25:30;;;;;;;32.60;7.77;;;;;;;;;;5249272;28;20025;-77
2022/06/09 02:28:01;;;;;;;28.33;7.70;;;;;;;;;;5254483;28;20017;-77
2022/06/09 02:30:33;;;;;;;26.77;6.87;;;;;;;;;;5250067;28;20488;-78
2022/06/09 02:33:04;;;;;;;21.63;7.53;;;;;;;;;;5253514;28;20049;-77
2022/06/09 02:35:37;;;;;;;25.60;6.87;;;;;;;;;;5253883;28;20016;-77
2022/06/09 02:38:08;;;;;;;25.17;8.07;;;;;;;;;;5251799;28;20381;-77
2022/06/09 02:40:39;;;;;;;29.60;7.33;;;;;;;;;;5246575;28;20017;-77
2022/06/09 02:43:11;;;;;;;23.80;7.40;;;;;;;;;;5245179;28;20020;-77
2022/06/09 02:45:44;;;;;;;22.40;7.50;;;;;;;;;;5254704;28;20017;-77
2022/06/09 02:48:16;;;;;;;23.40;8.23;;;;;;;;;;5236678;28;20044;-77
2022/06/09 02:50:48;;;;;;;27.93;8.27;;;;;;;;;;5238082;28;20028;-77
2022/06/09 02:53:20;;;;;;;29.07;8.47;;;;;;;;;;5245305;28;20369;-78
2022/06/09 02:55:52;;;;;;;22.20;7.20;;;;;;;;;;5246062;28;20025;-77
2022/06/09 02:58:23;;;;;;;24.87;7.90;;;;;;;;;;5231826;28;20041;-77
2022/06/09 03:00:55;;;;;;;30.30;8.83;;;;;;;;;;5235369;28;20452;-77
2022/06/09 03:03:27;;;;;;;24.13;7.70;;;;;;;;;;5243526;28;20108;-77
2022/06/09 03:05:58;;;;;;;27.13;8.10;;;;;;;;;;5254117;28;20096;-77
2022/06/09 03:08:30;;;;;;;29.00;8.10;;;;;;;;;;5253224;28;20017;-77
2022/06/09 03:11:01;;;;;;;26.23;8.43;;;;;;;;;;5249259;28;20021;-77
2022/06/09 03:13:32;;;;;;;26.27;8.30;;;;;;;;;;5234409;28;20017;-77
2022/06/09 03:16:04;;;;;;;29.00;8.40;;;;;;;;;;5233861;28;20017;-77
2022/06/09 03:18:35;;;;;;;25.57;7.93;;;;;;;;;;5241029;28;20021;-77
2022/06/09 03:21:06;;;;;;;22.20;8.60;;;;;;;;;;5230704;28;20025;-76
2022/06/09 03:23:38;;;;;;;29.10;9.00;;;;;;;;;;5241303;28;20029;-77
2022/06/09 03:26:09;;;;;;;28.77;8.93;;;;;;;;;;5234010;28;20045;-78
2022/06/09 03:28:41;;;;;;;21.87;7.80;;;;;;;;;;5237661;28;20021;-78
2022/06/09 03:31:12;;;;;;;29.23;7.93;;;;;;;;;;5252016;28;20032;-77
2022/06/09 03:33:43;;;;;;;26.63;8.70;;;;;;;;;;5250945;28;20554;-77
2022/06/09 03:36:15;;;;;;;38.17;9.13;;;;;;;;;;5233792;28;20096;-77
2022/06/09 03:38:46;;;;;;;33.97;9.83;;;;;;;;;;5233036;28;20033;-77
2022/06/09 03:41:17;;;;;;;27.53;8.20;;;;;;;;;;5235279;28;20024;-77
2022/06/09 03:43:49;;;;;;;24.67;8.63;;;;;;;;;;5242639;28;20017;-77
2022/06/09 03:46:20;;;;;;;24.27;8.57;;;;;;;;;;5253896;28;20021;-78
2022/06/09 03:48:51;;;;;;;24.80;9.40;;;;;;;;;;5236396;28;20013;-76
2022/06/09 03:51:22;;;;;;;27.30;8.03;;;;;;;;;;5234368;28;20025;-77
2022/06/09 03:53:54;;;;;;;24.83;8.27;;;;;;;;;;5241446;28;20018;-76
2022/06/09 03:56:25;;;;;;;28.33;9.60;;;;;;;;;;5232948;28;20097;-76
2022/06/09 03:58:56;;;;;;;28.53;9.73;;;;;;;;;;5245006;28;20033;-77
2022/06/09 04:01:27;;;;;;;25.47;7.73;;;;;;;;;;5250392;28;20037;-77
2022/06/09 04:03:59;;;;;;;25.20;8.57;;;;;;;;;;5236838;28;20440;-77
2022/06/09 04:06:30;;;;;;;30.07;9.13;;;;;;;;;;5231860;28;20499;-77
2022/06/09 04:09:01;;;;;;;20.93;7.50;;;;;;;;;;5245896;28;20103;-77
2022/06/09 04:11:33;;;;;;;22.83;8.27;;;;;;;;;;5252146;28;20075;-77
2022/06/09 04:14:04;;;;;;;20.23;8.23;;;;;;;;;;5240942;28;20024;-78
2022/06/09 04:16:36;;;;;;;29.87;10.50;;;;;;;;;;5247407;28;20013;-77
2022/06/09 04:19:10;;;;;;;26.87;8.40;;;;;;;;;;5251781;28;20032;-77
2022/06/09 04:21:41;;;;;;;27.57;8.87;;;;;;;;;;5249215;28;20016;-77
2022/06/09 04:24:12;;;;;;;27.00;9.17;;;;;;;;;;5253047;28;20027;-77
2022/06/09 04:26:44;;;;;;;29.00;8.63;;;;;;;;;;5253608;28;20017;-77
2022/06/09 04:29:15;;;;;;;27.50;9.00;;;;;;;;;;5237982;28;20013;-77
2022/06/09 04:31:46;;;;;;;28.60;8.30;;;;;;;;;;5237038;28;20071;-78
2022/06/09 04:34:17;;;;;;;25.10;8.63;;;;;;;;;;5234320;28;20063;-78
2022/06/09 04:36:49;;;;;;;23.70;8.80;;;;;;;;;;5232167;28;20064;-78
2022/06/09 04:39:20;;;;;;;29.20;9.90;;;;;;;;;;5237474;28;20029;-78
2022/06/09 04:41:51;;;;;;;33.67;11.00;;;;;;;;;;5247162;28;20397;-78
2022/06/09 04:44:22;;;;;;;27.43;9.00;;;;;;;;;;5239194;28;20017;-78
2022/06/09 04:46:53;;;;;;;27.53;8.77;;;;;;;;;;5235479;28;20025;-78
2022/06/09 04:49:25;;;;;;;52.87;11.00;;;;;;;;;;5252282;28;20013;-77
2022/06/09 04:51:56;;;;;;;29.93;10.27;;;;;;;;;;5231014;28;20025;-77
2022/06/09 04:54:27;;;;;;;29.93;10.27;;;;;;;;;;5238802;28;20076;-78
2022/06/09 04:56:58;;;;;;;35.77;10.93;;;;;;;;;;5254392;28;20040;-77
2022/06/09 04:59:29;;;;;;;32.17;10.63;;;;;;;;;;5257291;28;20539;-77
2022/06/09 05:02:01;;;;;;;33.17;10.57;;;;;;;;;;5254750;28;20106;-78
2022/06/09 05:04:32;;;;;;;26.90;9.43;;;;;;;;;;5243807;28;20048;-78
2022/06/09 05:07:03;;;;;;;25.40;9.10;;;;;;;;;;5255682;28;20100;-77
2022/06/09 05:09:34;;;;;;;29.07;10.03;;;;;;;;;;5237638;28;20121;-77
2022/06/09 05:12:05;;;;;;;27.17;10.07;;;;;;;;;;5235994;28;20029;-77
2022/06/09 05:14:36;;;;;;;33.43;9.70;;;;;;;;;;5250765;28;20480;-77
2022/06/09 05:17:08;;;;;;;26.10;9.13;;;;;;;;;;5246832;28;20021;-78
2022/06/09 05:19:39;;;;;;;34.20;9.70;;;;;;;;;;5242367;28;20055;-77
2022/06/09 05:22:10;;;;;;;26.20;10.13;;;;;;;;;;5253305;28;20532;-78
2022/06/09 05:24:41;;;;;;;35.87;11.30;;;;;;;;;;5251836;28;20024;-78
2022/06/09 05:27:14;;;;;;;34.17;9.83;;;;;;;;;;5249559;28;20473;-78
2022/06/09 05:29:45;;;;;;;26.97;9.53;;;;;;;;;;5238859;28;20024;-78
2022/06/09 05:32:16;;;;;;;28.83;9.50;;;;;;;;;;5263984;28;20059;-78
2022/06/09 05:34:48;;;;;;;28.43;8.90;;;;;;;;;;5256480;28;20112;-78
2022/06/09 05:37:19;;;;;;;26.73;9.50;;;;;;;;;;5255166;28;20025;-78
2022/06/09 05:45:50;;;;;;;27.97;9.23;;;;;;;;;;5191491;28;20057;-77
2022/06/09 05:48:21;;;;;;;26.17;7.83;;;;;;;;;;5227625;28;20037;-78
2022/06/09 05:50:53;;;;;;;24.93;8.30;;;;;;;;;;5259913;28;20099;-78
2022/06/09 05:53:24;;;;;;;26.50;8.00;;;;;;;;;;5257018;28;20053;-77
2022/06/09 05:55:56;;;;;;;28.90;7.67;;;;;;;;;;5243652;28;20005;-77
2022/06/09 05:58:27;;;;;;;31.33;9.10;;;;;;;;;;5247408;28;20415;-77
2022/06/09 06:00:59;;;;;;;23.63;8.10;;;;;;;;;;5240513;28;20063;-77
2022/06/09 06:03:31;;;;;;;21.63;8.23;;;;;;;;;;5251272;28;20037;-77
2022/06/09 06:08:52;;;;;;;23.93;8.00;;;;;;;;;;5249936;28;20021;-75
2022/06/09 06:11:23;;;;;;;22.87;7.20;;;;;;;;;;5245980;28;20025;-74
2022/06/09 06:13:57;;;;;;;26.63;8.50;;;;;;;;;;5254526;28;20019;-74
2022/06/09 06:16:28;;;;;;;19.08;6.65;;;;;;;;;;5270518;28;20044;-74
2022/06/09 06:19:00;;;;;;;26.93;7.87;;;;;;;;;;5265908;28;20056;-75
2022/06/09 06:21:31;;;;;;;17.67;7.53;;;;;;;;;;5269505;28;20663;-74
2022/06/09 06:24:03;;;;;;;15.80;6.77;;;;;;;;;;5266506;28;20060;-75
2022/06/09 06:26:35;;;;;;;20.50;6.97;;;;;;;;;;5269590;28;20012;-75
2022/06/09 06:29:10;;;;;;;24.60;7.83;;;;;;;;;;5271399;28;20037;-77
2022/06/09 06:31:42;;;;;;;16.47;6.17;;;;;;;;;;5242791;28;20056;-75
2022/06/09 06:34:14;;;;;;;19.57;7.30;;;;;;;;;;5241437;28;20139;-75
2022/06/09 06:36:45;;;;;;;16.57;7.10;;;;;;;;;;5246915;28;20112;-76
2022/06/09 06:39:17;;;;;;;20.83;6.83;;;;;;;;;;5243901;28;20040;-76
2022/06/09 06:41:48;;;;;;;20.43;6.47;;;;;;;;;;5251847;28;20413;-75
2022/06/09 06:44:19;;;;;;;21.03;6.20;;;;;;;;;;5248501;28;20016;-76
2022/06/09 06:46:50;;;;;;;23.43;7.53;;;;;;;;;;5250901;28;20767;-76
2022/06/09 06:49:22;;;;;;;20.37;5.87;;;;;;;;;;5268889;28;20525;-76
2022/06/09 06:51:53;;;;;;;18.77;6.20;;;;;;;;;;5265753;28;20024;-75
2022/06/09 06:54:24;;;;;;;16.30;6.27;;;;;;;;;;5261177;28;20464;-76
2022/06/09 06:56:56;;;;;;;17.03;6.27;;;;;;;;;;5254302;28;20112;-76
2022/06/09 06:59:28;;;;;;;20.97;6.93;;;;;;;;;;5273728;28;20119;-76
2022/06/09 07:01:59;;;;;;;16.80;6.00;;;;;;;;;;5247002;28;20672;-76
2022/06/09 07:04:30;;;;;;;15.63;6.30;;;;;;;;;;5252018;28;20013;-75
2022/06/09 07:07:02;;;;;;;15.63;6.87;;;;;;;;;;5252387;28;20021;-76
2022/06/09 07:09:33;;;;;;;21.73;7.50;;;;;;;;;;5254519;28;20059;-76
2022/06/09 07:12:04;;;;;;;18.17;6.40;;;;;;;;;;5252657;28;20044;-76
2022/06/09 07:14:36;;;;;;;17.23;7.30;;;;;;;;;;5252407;28;20021;-76
2022/06/09 07:17:07;;;;;;;18.13;6.23;;;;;;;;;;5264302;28;20021;-76
2022/06/09 07:19:38;;;;;;;20.67;7.10;;;;;;;;;;5270419;28;20024;-76
2022/06/09 07:22:09;;;;;;;11.77;4.90;;;;;;;;;;5250771;28;20083;-76
2022/06/09 07:24:41;;;;;;;14.60;5.30;;;;;;;;;;5252452;28;20503;-76
2022/06/09 07:27:13;;;;;;;12.90;5.70;;;;;;;;;;5255283;28;20096;-76
2022/06/09 07:29:44;;;;;;;13.73;4.50;;;;;;;;;;5270582;28;20451;-76
2022/06/09 07:32:16;;;;;;;13.67;4.00;;;;;;;;;;5243093;28;20060;-76
2022/06/09 07:34:47;;;;;;;6.20;2.53;;;;;;;;;;5252611;28;20070;-76
2022/06/09 07:37:19;;;;;;;8.00;2.40;;;;;;;;;;5250969;28;20057;-76
2022/06/09 07:39:50;;;;;;;10.60;2.50;;;;;;;;;;5252583;28;20028;-76
2022/06/09 07:42:21;;;;;;;9.73;2.20;;;;;;;;;;5250213;28;20138;-76
2022/06/09 07:44:53;;;;;;;7.57;1.80;;;;;;;;;;5252326;28;20021;-76
2022/06/09 07:47:34;;;;;;;7.77;1.97;;;;;;;;;;5250598;28;20020;-76
2022/06/09 07:50:07;;;;;;;8.87;2.40;;;;;;;;;;5252806;28;20413;-76
2022/06/09 07:52:40;;;;;;;7.77;1.90;;;;;;;;;;5250137;28;20028;-76
2022/06/09 07:55:12;;;;;;;6.27;2.00;;;;;;;;;;5254330;28;20043;-76
2022/06/09 07:57:43;;;;;;;4.83;1.40;;;;;;;;;;5254752;28;20028;-75
2022/06/09 08:00:15;;;;;;;5.00;1.53;;;;;;;;;;5271963;28;20050;-76
2022/06/09 08:02:46;;;;;;;5.80;1.50;;;;;;;;;;5250213;28;20098;-75
2022/06/09 08:05:19;;;;;;;4.07;1.40;;;;;;;;;;5253213;28;20471;-76
2022/06/09 08:07:50;;;;;;;4.27;1.07;;;;;;;;;;5250966;28;20021;-76
2022/06/09 08:10:22;;;;;;;2.77;1.20;;;;;;;;;;5264052;28;20047;-76
2022/06/09 08:12:55;;;;;;;4.33;1.50;;;;;;;;;;5247822;28;20032;-76
2022/06/09 08:15:27;;;;;;;3.60;1.20;;;;;;;;;;5253457;28;20373;-76
2022/06/09 08:17:59;;;;;;;5.03;1.70;;;;;;;;;;5237814;28;20109;-76
2022/06/09 08:20:32;;;;;;;9.73;1.60;;;;;;;;;;5253626;28;20028;-76
2022/06/09 08:23:08;;;;;;;3.83;1.50;;;;;;;;;;5264007;28;20013;-76
2022/06/09 08:25:41;;;;;;;5.33;1.80;;;;;;;;;;5268076;28;20020;-76
2022/06/09 08:28:13;;;;;;;4.77;1.37;;;;;;;;;;5272971;28;20037;-76
2022/06/09 08:30:45;;;;;;;5.27;1.40;;;;;;;;;;5273989;28;20028;-76
2022/06/09 08:33:16;;;;;;;5.33;1.30;;;;;;;;;;5264607;28;20067;-76
2022/06/09 08:35:47;;;;;;;4.43;1.40;;;;;;;;;;5255259;28;20025;-76
2022/06/09 08:38:19;;;;;;;3.63;1.27;;;;;;;;;;5256472;28;20029;-76
2022/06/09 08:41:13;;;;;;;2.60;1.30;;;;;;;;;;5256180;28;20029;-77
2022/06/09 08:44:03;;;;;;;3.97;1.33;;;;;;;;;;5252083;28;20052;-76
2022/06/09 08:46:44;;;;;;;4.77;1.37;;;;;;;;;;5237799;28;20266;-77
2022/06/09 08:49:24;;;;;;;10.03;2.30;;;;;;;;;;5273459;28;20082;-76
2022/06/09 08:51:58;;;;;;;4.03;1.27;;;;;;;;;;5257429;28;20441;-76
2022/06/09 08:54:31;;;;;;;5.95;1.80;;;;;;;;;;5252374;28;20025;-76
2022/06/09 08:57:12;;;;;;;4.82;1.55;;;;;;;;;;5263445;28;20453;-76
2022/06/09 08:59:46;;;;;;;3.95;1.60;;;;;;;;;;5273421;28;20028;-77
2022/06/09 09:02:17;;;;;;;;;;;;;;;;;;5261511;28;20116;-77
2022/06/09 09:04:53;;;;;;;4.43;1.40;;;;;;;;;;5270732;28;20295;-77
2022/06/09 09:07:27;;;;;;;4.77;1.20;;;;;;;;;;5271299;28;20021;-77
2022/06/09 09:10:19;;;;;;;6.95;1.40;;;;;;;;;;5257653;28;20075;-77
2022/06/09 09:12:50;;;;;;;7.70;1.93;;;;;;;;;;5255436;28;20086;-77
2022/06/09 09:15:30;;;;;;;5.34;1.18;;;;;;;;;;5255485;28;20100;-77
2022/06/09 09:18:11;;;;;;;3.07;1.40;;;;;;;;;;5240206;28;20497;-77
2022/06/09 09:20:48;;;;;;;5.17;1.90;;;;;;;;;;5254371;28;20079;-77
2022/06/09 09:23:21;;;;;;;3.10;1.33;;;;;;;;;;5250882;28;20029;-77
2022/06/09 09:25:53;;;;;;;4.60;1.42;;;;;;;;;;5251675;28;20510;-77
2022/06/09 09:28:35;;;;;;;6.33;1.50;;;;;;;;;;5269586;28;20024;-77
2022/06/09 09:31:09;;;;;;;5.23;1.70;;;;;;;;;;5257063;28;20384;-76
2022/06/09 09:33:41;;;;;;;5.77;2.17;;;;;;;;;;5246277;28;20055;-77
2022/06/09 09:36:18;;;;;;;2.50;1.17;;;;;;;;;;5253911;28;20013;-77
2022/06/09 09:39:10;;;;;;;5.03;1.80;;;;;;;;;;5252991;28;20075;-77
2022/06/09 09:41:42;;;;;;;5.17;2.20;;;;;;;;;;5265484;28;20100;-76
2022/06/09 09:44:20;;;;;;;4.23;1.80;;;;;;;;;;5251882;28;20050;-77
2022/06/09 09:46:56;;;;;;;10.00;2.37;;;;;;;;;;5248478;28;20045;-77
2022/06/09 09:49:29;;;;;;;4.80;1.93;;;;;;;;;;5248318;28;20405;-77
2022/06/09 09:52:01;;;;;;;4.38;1.95;;;;;;;;;;5252351;28;20047;-77
2022/06/09 09:54:39;;;;;;;8.27;1.97;;;;;;;;;;5253198;28;20059;-77
2022/06/09 09:57:15;;;;;;;6.73;2.30;;;;;;;;;;5255474;28;20382;-77
2022/06/09 09:59:47;;;;;;;5.17;2.10;;;;;;;;;;5268996;28;20059;-77
2022/06/09 10:08:41;;;;;;;10.52;3.08;;;;;;;;;;5254868;28;20041;-77
2022/06/09 10:14:39;;;;;;;5.55;1.85;;;;;;;;;;5263595;28;20036;-77
2022/06/09 10:17:28;;;;;;;25.45;6.35;;;;;;;;;;5237294;28;20058;-77
2022/06/09 10:20:17;;;;;;;18.63;5.93;;;;;;;;;;5268542;28;20036;-76
2022/06/09 10:23:17;;;;;;;7.63;4.00;;;;;;;;;;5269266;28;20171;-77
2022/06/09 10:25:54;;;;;;;9.03;2.93;;;;;;;;;;5271857;28;20016;-77
2022/06/09 10:28:30;;;;;;;8.10;3.23;;;;;;;;;;5261063;28;20032;-77
2022/06/09 10:31:13;;;;;;;8.37;3.57;;;;;;;;;;5265020;28;20104;-77
2022/06/09 10:33:52;;;;;;;7.33;3.03;;;;;;;;;;5266355;28;20536;-77
2022/06/09 10:36:36;;;;;;;8.80;4.10;;;;;;;;;;5267148;28;20365;-77
2022/06/09 10:39:12;;;;;;;8.60;5.50;;;;;;;;;;5263429;28;20479;-77
2022/06/09 10:41:53;;;;;;;9.15;4.40;;;;;;;;;;5249514;28;20274;-77
2022/06/09 10:44:35;;;;;;;11.82;4.55;;;;;;;;;;5251412;28;20021;-77
2022/06/09 10:56:28;;;;;;;4.63;3.38;;;;;;;;;;5245305;28;20852;-78
2022/06/09 10:59:20;;;;;;;7.65;3.40;;;;;;;;;;5242862;28;20040;-78
2022/06/09 11:01:51;;;;;;;9.13;4.05;;;;;;;;;;5241879;28;20033;-79
2022/06/09 11:04:23;;;;;;;5.97;2.90;;;;;;;;;;5242079;28;20029;-79
2022/06/09 11:06:58;;;;;;;6.00;2.20;;;;;;;;;;5240120;28;20079;-78
2022/06/09 11:09:48;;;;;;;5.65;2.08;;;;;;;;;;5243614;28;20435;-78
2022/06/09 11:12:29;;;;;;;7.22;2.67;;;;;;;;;;5238846;28;20503;-78
2022/06/09 11:15:16;;;;;;;5.40;2.45;;;;;;;;;;5244022;28;20035;-79
2022/06/09 11:17:47;;;;;;;7.82;2.50;;;;;;;;;;5243718;28;20094;-79
2022/06/09 11:20:22;;;;;;;7.70;1.70;;;;;;;;;;5243498;28;20037;-79
2022/06/09 11:23:03;;;;;;;7.00;1.95;;;;;;;;;;5241269;28;20202;-78
2022/06/09 11:25:34;;;;;;;8.60;2.58;;;;;;;;;;5243726;28;20025;-77
2022/06/09 11:28:05;;;;;;;4.30;1.88;;;;;;;;;;5242820;28;20067;-77
2022/06/09 11:30:52;;;;;;;8.42;2.18;;;;;;;;;;5243415;28;20497;-77
2022/06/09 11:33:35;;;;;;;8.27;2.58;;;;;;;;;;5239602;28;20872;-77
2022/06/09 11:36:25;;;;;;;7.87;1.83;;;;;;;;;;5240191;28;20084;-78
2022/06/09 11:39:17;;;;;;;9.18;2.30;;;;;;;;;;5243698;28;20037;-78
2022/06/09 11:42:24;;;;;;;6.78;1.80;;;;;;;;;;5242881;28;20036;-78
2022/06/09 11:44:58;;;;;;;7.13;2.47;;;;;;;;;;5179155;28;20023;-78
2022/06/09 11:47:32;;;;;;;6.13;1.98;;;;;;;;;;5229211;28;20047;-78
2022/06/09 11:50:05;;;;;;;8.70;2.30;;;;;;;;;;5241485;28;21451;-79
2022/06/09 11:52:41;;;;;;;8.55;2.10;;;;;;;;;;5241734;28;20024;-78
2022/06/09 11:55:28;;;;;;;8.43;2.47;;;;;;;;;;5244004;28;20432;-78
2022/06/09 11:57:59;;;;;;;5.45;1.80;;;;;;;;;;5242664;28;20013;-77
2022/06/09 12:00:35;;;;;;;8.90;2.25;;;;;;;;;;5243442;28;20043;-79
2022/06/09 12:03:32;;;;;;;6.50;1.80;;;;;;;;;;5243343;28;20112;-78
2022/06/09 12:06:11;;;;;;;8.02;1.80;;;;;;;;;;5245285;28;20078;-78
2022/06/09 12:09:01;;;;;;;9.20;2.28;;;;;;;;;;5248511;28;20059;-78
2022/06/09 12:12:07;;;;;;;8.27;2.25;;;;;;;;;;5246936;28;20043;-78
2022/06/09 12:14:40;;;;;;;12.43;2.50;;;;;;;;;;5186182;28;20038;-79
2022/06/09 12:17:11;;;;;;;8.63;2.50;;;;;;;;;;5239140;28;20037;-78
2022/06/09 12:19:51;;;;;;;11.18;3.05;;;;;;;;;;5243943;28;20059;-78
2022/06/09 12:22:34;;;;;;;6.25;2.30;;;;;;;;;;5242645;28;20703;-78
2022/06/09 12:25:07;;;;;;;10.98;2.55;;;;;;;;;;5245717;28;20076;-78
2022/06/09 12:27:41;;;;;;;10.57;4.40;;;;;;;;;;5243133;28;20151;-79
2022/06/09 12:30:15;;;;;;;10.77;3.45;;;;;;;;;;5248580;28;20081;-76
2022/06/09 12:33:10;;;;;;;9.32;3.50;;;;;;;;;;5243419;28;20041;-77
2022/06/09 12:35:50;;;;;;;10.88;4.97;;;;;;;;;;5244420;28;20598;-77
2022/06/09 12:38:21;;;;;;;10.77;3.75;;;;;;;;;;5245048;28;20033;-77
2022/06/09 12:40:55;;;;;;;9.65;3.38;;;;;;;;;;5245087;28;20366;-77
2022/06/09 12:43:29;;;;;;;7.32;3.33;;;;;;;;;;5245405;28;20031;-78
2022/06/09 12:46:03;;;;;;;10.93;4.13;;;;;;;;;;5244942;28;20063;-78
2022/06/09 12:48:34;;;;;;;7.95;3.85;;;;;;;;;;5245296;28;20653;-77
2022/06/09 12:51:08;;;;;;;8.55;3.17;;;;;;;;;;5245088;28;20108;-78
2022/06/09 12:53:41;;;;;;;10.32;3.55;;;;;;;;;;5245493;28;20033;-78
2022/06/09 12:56:18;;;;;;;7.63;2.70;;;;;;;;;;5244232;28;20030;-78
2022/06/09 12:58:50;;;;;;;9.18;3.67;;;;;;;;;;5245404;28;20032;-78
2022/06/09 13:01:24;;;;;;;6.50;2.58;;;;;;;;;;5245076;28;20005;-78
2022/06/09 13:03:55;;;;;;;9.73;3.63;;;;;;;;;;5245664;28;20776;-78
2022/06/09 13:06:28;;;;;;;8.48;2.38;;;;;;;;;;5243633;28;20052;-79
2022/06/09 13:09:02;;;;;;;9.68;3.20;;;;;;;;;;5254731;28;20024;-77
2022/06/09 13:14:24;;;;;;;7.63;1.90;;;;;;;;;;5265842;28;19912;-75
2022/06/09 13:16:58;;;;;;;10.73;2.55;;;;;;;;;;5266452;28;20029;-75
2022/06/09 13:19:29;;;;;;;9.57;2.25;;;;;;;;;;5272606;28;20033;-75
2022/06/09 13:22:02;;;;;;;11.57;3.05;;;;;;;;;;5258227;28;20009;-76
2022/06/09 13:24:35;;;;;;;9.68;2.58;;;;;;;;;;5264299;28;20084;-76
2022/06/09 13:27:32;;;;;;;7.82;2.10;;;;;;;;;;5262878;28;20029;-76
2022/06/09 13:30:19;;;;;;;9.50;2.88;;;;;;;;;;5258438;28;20025;-75
2022/06/09 13:32:50;;;;;;;7.85;1.95;;;;;;;;;;5246541;28;20029;-75
2022/06/09 13:35:41;;;;;;;5.28;1.58;;;;;;;;;;5264909;28;20036;-76
2022/06/09 13:38:17;;;;;;;11.23;2.20;;;;;;;;;;5267214;28;20025;-76
2022/06/09 13:40:52;;;;;;;8.05;1.50;;;;;;;;;;5267130;28;20023;-76
2022/06/09 13:43:31;;;;;;;7.75;1.65;;;;;;;;;;5262740;28;20020;-75
2022/06/09 13:46:08;;;;;;;6.82;1.42;;;;;;;;;;5263038;28;21030;-76
2022/06/09 13:48:42;;;;;;;7.50;1.90;;;;;;;;;;5267604;28;20021;-75
2022/06/09 13:51:32;;;;;;;11.50;2.17;;;;;;;;;;5269064;28;20108;-75
2022/06/09 13:54:15;;;;;;;6.82;1.50;;;;;;;;;;5263991;28;20028;-75
2022/06/09 13:56:47;;;;;;;14.88;2.83;;;;;;;;;;5264395;28;20709;-75
2022/06/09 13:59:19;;;;;;;5.85;1.80;;;;;;;;;;5266506;28;20091;-75
2022/06/09 14:01:53;;;;;;;5.30;1.55;;;;;;;;;;5258090;28;20055;-77
2022/06/09 14:04:28;;;;;;;10.90;2.28;;;;;;;;;;5264239;28;20021;-77
2022/06/09 14:06:59;;;;;;;6.43;1.83;;;;;;;;;;5262132;28;20021;-76
2022/06/09 14:09:30;;;;;;;6.88;1.48;;;;;;;;;;5245996;28;20377;-76
2022/06/09 14:12:01;;;;;;;7.85;1.48;;;;;;;;;;5268248;28;20013;-77
2022/06/09 14:14:32;;;;;;;3.45;1.20;;;;;;;;;;5265215;28;20021;-76
2022/06/09 14:17:04;;;;;;;5.00;1.40;;;;;;;;;;5262481;28;20108;-76
2022/06/09 14:19:35;;;;;;;7.55;1.80;;;;;;;;;;5256688;28;20025;-75
2022/06/09 14:22:08;;;;;;;7.03;2.08;;;;;;;;;;5264113;28;20401;-76
2022/06/09 14:24:39;;;;;;;6.97;1.67;;;;;;;;;;5257168;28;20432;-76
2022/06/09 14:27:11;;;;;;;7.00;1.65;;;;;;;;;;5262971;28;20111;-77
2022/06/09 14:29:42;;;;;;;8.55;1.92;;;;;;;;;;5260308;28;20032;-77
2022/06/09 14:32:16;;;;;;;7.43;1.88;;;;;;;;;;5256721;28;20530;-76
2022/06/09 14:34:47;;;;;;;10.95;2.70;;;;;;;;;;5255201;28;20504;-75
2022/06/09 14:37:18;;;;;;;6.22;1.60;;;;;;;;;;5261245;28;20073;-77
2022/06/09 14:39:51;;;;;;;9.30;1.77;;;;;;;;;;5248918;28;20033;-76
2022/06/09 14:42:22;;;;;;;10.13;2.10;;;;;;;;;;5251728;28;20033;-77
2022/06/09 14:44:53;;;;;;;8.63;2.25;;;;;;;;;;5253218;28;20020;-78
2022/06/09 14:47:24;;;;;;;7.05;1.52;;;;;;;;;;5256293;28;20027;-78
2022/06/09 14:49:55;;;;;;;7.03;2.35;;;;;;;;;;5255798;28;20385;-78
2022/06/09 14:52:26;;;;;;;7.15;1.80;;;;;;;;;;5255076;28;20082;-77
2022/06/09 14:54:58;;;;;;;8.95;2.05;;;;;;;;;;5263783;28;20013;-77
2022/06/09 14:57:29;;;;;;;6.95;2.05;;;;;;;;;;5265359;28;20028;-77
2022/06/09 15:00:00;;;;;;;8.93;1.70;;;;;;;;;;5265150;28;20807;-77
2022/06/09 15:02:31;;;;;;;6.55;1.90;;;;;;;;;;5252316;28;20023;-77
2022/06/09 15:05:06;;;;;;;8.05;2.03;;;;;;;;;;5251759;28;20013;-77
2022/06/09 15:07:37;;;;;;;4.85;1.95;;;;;;;;;;5261098;28;20106;-77
2022/06/09 15:10:09;;;;;;;8.98;1.77;;;;;;;;;;5245977;28;20103;-78
2022/06/09 15:12:40;;;;;;;9.50;1.80;;;;;;;;;;5252946;28;20021;-77
2022/06/09 15:15:12;;;;;;;5.13;1.67;;;;;;;;;;5252868;28;20025;-77
2022/06/09 15:17:43;;;;;;;8.23;1.65;;;;;;;;;;5263156;28;20025;-77
2022/06/09 15:20:17;;;;;;;7.97;1.42;;;;;;;;;;5253632;28;20036;-77
2022/06/09 15:22:49;;;;;;;6.03;2.05;;;;;;;;;;5253805;28;20016;-77
2022/06/09 15:25:20;;;;;;;5.10;1.80;;;;;;;;;;5265000;28;20027;-77
2022/06/09 15:27:52;;;;;;;8.55;1.73;;;;;;;;;;5253865;28;20476;-77
2022/06/09 15:30:25;;;;;;;9.50;2.38;;;;;;;;;;5265543;28;20025;-77
2022/06/09 15:32:57;;;;;;;7.50;2.03;;;;;;;;;;5255763;28;20045;-77
2022/06/09 15:35:29;;;;;;;6.72;1.70;;;;;;;;;;5266556;28;20036;-76
2022/06/09 15:38:00;;;;;;;6.65;1.73;;;;;;;;;;5265114;28;20503;-76
2022/06/09 15:40:33;;;;;;;9.38;2.10;;;;;;;;;;5263432;28;20033;-76
2022/06/09 15:43:04;;;;;;;9.63;2.55;;;;;;;;;;5255732;28;20025;-77
2022/06/09 15:45:38;;;;;;;9.18;1.92;;;;;;;;;;5254107;28;20031;-76
2022/06/09 15:48:11;;;;;;;7.13;2.13;;;;;;;;;;5263536;28;20033;-76